Glendale Springs, North Carolina
Current Conditions -  °F | °C
As of 4:40 PM on Wednesday 26 Nov 2014 (Local Time) from KGEV Reporting Station
Overcast Overcast  
Wind Chill:   Ceiling: 1600
Heat Index:   Visibility: 10mi
Dew Point:   Wind: 0mph
Humidity: 83%   Direction: NA
Pressure: 29.95"   Gusts: NA
Location:  36.35°N, 81.38°W
Report Text: KGEV 262140Z AUTO 00000KT 10SM OVC016 03/00 A2995 RMK AO2 T00260000
Loading
Personal Weather Stations






























Interactive Weather Map New forecast layout! Learn more

10-Day Weather Forecast

Advertisements
Track Severe Weather on mobile